Time;durP1;ratioP1;P1;durP2;ratioP2;P2;SDS_P1;SDS_P2;PMS_P1;PMS_P2;Temp;Humidity;BMP_temperature;BMP_pressure;BME280_temperature;BME280_humidity;BME280_pressure;Samples;Min_cycle;Max_cycle;Signal;HPM_P1;HPM_P2
2022/09/22 00:00:58;;;;;;;0.28;0.03;;;7.70;99.90;;;;;;6248188;22;20755;-90
2022/09/22 00:03:25;;;;;;;0.25;0.20;;;7.60;99.90;;;;;;6224767;22;20016;-90
2022/09/22 00:06:09;;;;;;;0.10;0.05;;;7.60;99.90;;;;;;6224328;22;20401;-91
2022/09/22 00:08:37;;;;;;;0.00;0.00;;;7.60;99.90;;;;;;6249458;22;20016;-90
2022/09/22 00:11:18;;;;;;;0.45;0.10;;;7.50;99.90;;;;;;6248892;22;20022;-90
2022/09/22 00:13:56;;;;;;;0.10;0.00;;;7.50;99.90;;;;;;6248761;22;20023;-91
2022/09/22 00:16:25;;;;;;;0.17;0.10;;;7.50;99.90;;;;;;6250448;22;20456;-91
2022/09/22 00:18:51;;;;;;;0.00;0.00;;;7.40;99.90;;;;;;6224638;22;20051;-91
2022/09/22 00:21:20;;;;;;;0.00;0.00;;;7.40;99.90;;;;;;6173964;22;20024;-89
2022/09/22 00:23:46;;;;;;;0.00;0.00;;;7.40;99.90;;;;;;6247706;22;20020;-92
2022/09/22 00:26:14;;;;;;;0.00;0.00;;;7.90;99.90;;;;;;6222817;22;20022;-91
2022/09/22 00:28:41;;;;;;;0.00;0.00;;;7.30;99.90;;;;;;6249892;22;20261;-91
2022/09/22 00:31:14;;;;;;;0.00;0.00;;;7.30;99.90;;;;;;6249829;22;20343;-90
2022/09/22 00:33:41;;;;;;;0.10;0.10;;;7.30;99.90;;;;;;6225509;22;20024;-90
2022/09/22 00:36:07;;;;;;;0.08;0.08;;;8.60;99.90;;;;;;6250262;22;20062;-90
2022/09/22 00:38:34;;;;;;;0.00;0.00;;;7.20;99.90;;;;;;6222424;22;20027;-90
2022/09/22 00:41:00;;;;;;;0.10;0.10;;;7.20;99.90;;;;;;6248044;22;20447;-89
2022/09/22 00:43:29;;;;;;;0.05;0.05;;;7.10;99.90;;;;;;6247590;22;20015;-90
2022/09/22 00:46:08;;;;;;;0.10;0.10;;;7.10;99.90;;;;;;6223118;22;20070;-90
2022/09/22 00:48:38;;;;;;;0.17;0.10;;;7.00;99.90;;;;;;6247920;22;20455;-90
2022/09/22 00:51:07;;;;;;;0.20;0.20;;;7.00;99.90;;;;;;6247858;22;20015;-90
2022/09/22 00:53:34;;;;;;;0.10;0.10;;;7.00;99.90;;;;;;6247979;22;20018;-90
2022/09/22 00:55:59;;;;;;;0.00;0.00;;;8.40;99.90;;;;;;6198860;22;20051;-89
2022/09/22 00:58:33;;;;;;;0.10;0.10;;;7.00;99.90;;;;;;6223282;22;20026;-90
2022/09/22 01:01:00;;;;;;;0.10;0.10;;;7.00;99.90;;;;;;6249404;22;20341;-90
2022/09/22 01:03:28;;;;;;;0.05;0.05;;;7.10;99.90;;;;;;6248221;22;20023;-90
2022/09/22 01:05:58;;;;;;;0.00;0.00;;;6.90;99.90;;;;;;6249024;22;20011;-91
2022/09/22 01:08:24;;;;;;;0.20;0.00;;;7.30;99.90;;;;;;6248884;22;20015;-91
2022/09/22 01:10:53;;;;;;;0.00;0.00;;;6.90;99.90;;;;;;6224316;22;20024;-90
2022/09/22 01:13:28;;;;;;;0.25;0.10;;;7.10;99.90;;;;;;6225357;22;20020;-90
2022/09/22 01:16:23;;;;;;;0.05;0.00;;;6.80;99.90;;;;;;6249458;22;20042;-91
2022/09/22 01:18:55;;;;;;;0.00;0.00;;;6.80;99.90;;;;;;6216858;22;20047;-91
2022/09/22 01:21:58;;;;;;;0.03;0.03;;;8.10;99.90;;;;;;6224511;22;20022;-91
2022/09/22 01:24:50;;;;;;;0.10;0.10;;;7.40;99.90;;;;;;6148967;22;20026;-91
2022/09/22 01:27:47;;;;;;;0.05;0.05;;;7.20;99.90;;;;;;6221839;22;20016;-91
2022/09/22 01:30:27;;;;;;;0.50;0.13;;;6.70;99.90;;;;;;6223183;22;20028;-91
2022/09/22 01:33:27;;;;;;;0.10;0.10;;;6.60;99.90;;;;;;6223931;22;20103;-91
2022/09/22 01:36:09;;;;;;;0.00;0.00;;;6.60;99.90;;;;;;6223784;22;20018;-91
2022/09/22 01:38:54;;;;;;;0.00;0.00;;;6.60;99.90;;;;;;6223241;22;20016;-91
2022/09/22 01:41:33;;;;;;;0.20;0.20;;;6.60;99.90;;;;;;6247220;22;20099;-90
2022/09/22 01:44:08;;;;;;;0.10;0.10;;;7.30;99.90;;;;;;6248370;22;20070;-90
2022/09/22 01:46:39;;;;;;;0.10;0.10;;;6.50;99.90;;;;;;6247948;22;20022;-90
2022/09/22 01:49:08;;;;;;;0.05;0.05;;;6.50;99.90;;;;;;6222122;22;20154;-90
2022/09/22 01:51:43;;;;;;;0.00;0.00;;;6.50;99.90;;;;;;6223441;22;20153;-91
2022/09/22 01:54:19;;;;;;;0.00;0.00;;;7.20;99.90;;;;;;6247348;22;20391;-89
2022/09/22 01:56:50;;;;;;;0.10;0.10;;;6.50;99.90;;;;;;6224520;22;20117;-91
2022/09/22 01:59:19;;;;;;;0.10;0.10;;;6.70;99.90;;;;;;6225092;22;20016;-90
2022/09/22 02:01:55;;;;;;;0.10;0.10;;;6.50;99.90;;;;;;6251099;22;20073;-90
2022/09/22 02:04:45;;;;;;;0.13;0.13;;;6.40;99.90;;;;;;6224723;22;20020;-90
2022/09/22 02:07:19;;;;;;;0.35;0.10;;;6.40;99.90;;;;;;6225860;22;20023;-88
2022/09/22 02:09:47;;;;;;;0.10;0.10;;;6.40;99.90;;;;;;6250827;22;20022;-90
2022/09/22 02:12:15;;;;;;;0.00;0.00;;;6.30;99.90;;;;;;6249422;22;20024;-90
2022/09/22 02:14:45;;;;;;;0.00;0.00;;;7.10;99.90;;;;;;6223410;22;20026;-91
2022/09/22 02:17:13;;;;;;;0.00;0.00;;;6.30;99.90;;;;;;6277594;22;20502;-89
2022/09/22 02:19:40;;;;;;;0.10;0.00;;;7.20;99.90;;;;;;6227464;22;20051;-91
2022/09/22 02:22:08;;;;;;;0.10;0.10;;;6.20;99.90;;;;;;6200651;22;20016;-91
2022/09/22 02:24:36;;;;;;;0.05;0.05;;;6.20;99.90;;;;;;6223355;22;20020;-90
2022/09/22 02:27:25;;;;;;;0.73;0.20;;;6.20;99.90;;;;;;6249079;22;20019;-91
2022/09/22 02:30:18;;;;;;;0.00;0.00;;;6.20;99.90;;;;;;6224881;22;20020;-92
2022/09/22 02:32:47;;;;;;;0.10;0.10;;;6.10;99.90;;;;;;6194266;22;20020;-91
2022/09/22 02:35:13;;;;;;;0.00;0.00;;;7.40;99.90;;;;;;6250965;22;20023;-90
2022/09/22 02:37:53;;;;;;;0.10;0.10;;;6.10;99.90;;;;;;6225833;22;20016;-91
2022/09/22 02:40:50;;;;;;;0.10;0.10;;;6.10;99.90;;;;;;6250014;22;20444;-91
2022/09/22 02:43:34;;;;;;;0.20;0.10;;;6.10;99.90;;;;;;6248450;22;20027;-90
2022/09/22 02:46:21;;;;;;;0.00;0.00;;;6.70;99.90;;;;;;6247827;22;20023;-90
2022/09/22 02:48:54;;;;;;;0.10;0.10;;;6.10;99.90;;;;;;6251010;22;20023;-92
2022/09/22 02:51:21;;;;;;;0.03;0.00;;;6.00;99.90;;;;;;6250638;22;20016;-91
2022/09/22 02:53:47;;;;;;;0.00;0.00;;;6.00;99.90;;;;;;6224235;22;20312;-91
2022/09/22 02:56:12;;;;;;;0.00;0.00;;;6.00;99.90;;;;;;6223612;22;20015;-91
2022/09/22 02:58:38;;;;;;;0.00;0.00;;;6.00;99.90;;;;;;6249083;22;20074;-91
2022/09/22 03:01:07;;;;;;;0.00;0.00;;;6.00;99.90;;;;;;6224161;22;20038;-90
2022/09/22 03:03:33;;;;;;;0.00;0.00;;;6.00;99.90;;;;;;6200794;22;20019;-89
2022/09/22 03:05:59;;;;;;;0.00;0.00;;;6.00;99.90;;;;;;6251263;22;20073;-90
2022/09/22 03:08:24;;;;;;;0.30;0.10;;;5.90;99.90;;;;;;6199115;22;20023;-90
2022/09/22 03:10:50;;;;;;;0.20;0.20;;;5.90;99.90;;;;;;6224162;22;20011;-91
2022/09/22 03:13:16;;;;;;;0.33;0.30;;;5.90;99.90;;;;;;6198425;22;20094;-90
2022/09/22 03:15:42;;;;;;;0.33;0.20;;;5.90;99.90;;;;;;6198814;22;20019;-90
2022/09/22 03:18:08;;;;;;;0.10;0.10;;;5.90;99.90;;;;;;6225179;22;20011;-90
2022/09/22 03:20:34;;;;;;;0.10;0.03;;;5.90;99.90;;;;;;6200180;22;20074;-91
2022/09/22 03:22:59;;;;;;;0.07;0.07;;;5.90;99.90;;;;;;6224320;22;20026;-91
2022/09/22 03:25:25;;;;;;;0.00;0.00;;;5.70;99.90;;;;;;6223810;22;20015;-90
2022/09/22 03:27:51;;;;;;;0.03;0.03;;;5.80;99.90;;;;;;6224547;22;20105;-90
2022/09/22 03:30:17;;;;;;;0.10;0.10;;;5.10;99.90;;;;;;6249790;22;20027;-90
2022/09/22 03:32:43;;;;;;;0.20;0.20;;;5.80;99.90;;;;;;6247821;22;20026;-90
2022/09/22 03:35:18;;;;;;;0.00;0.00;;;5.80;99.90;;;;;;6224964;22;20039;-90
2022/09/22 03:37:45;;;;;;;0.22;0.13;;;6.70;99.90;;;;;;6248598;22;20024;-94
2022/09/22 03:40:10;;;;;;;0.10;0.10;;;5.70;99.90;;;;;;6224059;22;20050;-90
2022/09/22 03:42:36;;;;;;;0.10;0.10;;;5.70;99.90;;;;;;6249134;22;20019;-92
2022/09/22 03:45:03;;;;;;;0.00;0.00;;;5.70;99.90;;;;;;6248437;22;20022;-91
2022/09/22 03:47:29;;;;;;;0.30;0.20;;;5.70;99.90;;;;;;6247175;22;20019;-92
2022/09/22 03:49:55;;;;;;;0.10;0.10;;;5.80;99.90;;;;;;6199069;22;20026;-90
2022/09/22 03:52:20;;;;;;;0.10;0.10;;;6.60;99.90;;;;;;6249575;22;20091;-87
2022/09/22 03:54:46;;;;;;;0.10;0.00;;;6.40;99.90;;;;;;6225072;22;20016;-91
2022/09/22 03:57:12;;;;;;;0.00;0.00;;;5.50;99.90;;;;;;6173764;22;20020;-89
2022/09/22 03:59:38;;;;;;;0.00;0.00;;;5.70;99.90;;;;;;6222187;22;20023;-89
2022/09/22 04:02:03;;;;;;;0.00;0.00;;;5.50;99.90;;;;;;6198660;22;20430;-89
2022/09/22 04:04:29;;;;;;;0.00;0.00;;;5.50;99.90;;;;;;6196924;22;20118;-92
2022/09/22 04:06:55;;;;;;;0.07;0.07;;;5.50;99.90;;;;;;6199138;22;20016;-90
2022/09/22 04:09:21;;;;;;;0.00;0.00;;;5.50;99.90;;;;;;6199532;22;20456;-91
2022/09/22 04:11:47;;;;;;;2.13;0.27;;;6.20;99.90;;;;;;6199380;22;20271;-91
2022/09/22 04:14:13;;;;;;;0.25;0.10;;;5.40;99.90;;;;;;6249544;22;20011;-91
2022/09/22 04:16:41;;;;;;;0.00;0.00;;;6.40;99.90;;;;;;6224233;22;20518;-91
2022/09/22 04:19:08;;;;;;;0.00;0.00;;;5.40;99.90;;;;;;6174921;22;20026;-91
2022/09/22 04:21:34;;;;;;;0.20;0.20;;;5.40;99.90;;;;;;6172493;22;20020;-91
2022/09/22 04:24:00;;;;;;;0.20;0.20;;;6.10;99.90;;;;;;6200368;22;20015;-90
2022/09/22 04:26:26;;;;;;;0.10;0.10;;;5.30;99.90;;;;;;6224441;22;20042;-88
2022/09/22 04:28:51;;;;;;;0.00;0.00;;;5.30;99.90;;;;;;6276149;22;20440;-93
2022/09/22 04:31:18;;;;;;;0.13;0.13;;;5.90;99.90;;;;;;6199843;22;20024;-90
2022/09/22 04:33:44;;;;;;;0.00;0.00;;;6.40;99.90;;;;;;6223259;22;20348;-94
2022/09/22 04:36:10;;;;;;;0.10;0.10;;;5.40;99.90;;;;;;6249770;22;20020;-95
2022/09/22 04:38:35;;;;;;;0.27;0.10;;;5.80;99.90;;;;;;6224909;22;20023;-95
2022/09/22 04:41:01;;;;;;;0.10;0.10;;;5.30;99.90;;;;;;6225366;22;20012;-95
2022/09/22 04:43:27;;;;;;;0.10;0.10;;;6.60;99.90;;;;;;6224790;22;20020;-95
2022/09/22 04:45:52;;;;;;;0.03;0.03;;;5.90;99.90;;;;;;6199788;22;20012;-94
2022/09/22 04:48:18;;;;;;;0.20;0.20;;;5.30;99.90;;;;;;6223725;22;20047;-94
2022/09/22 04:50:44;;;;;;;0.20;0.20;;;6.50;99.90;;;;;;6225425;22;20456;-95
2022/09/22 04:53:11;;;;;;;0.20;0.20;;;5.30;99.90;;;;;;6226103;22;20019;-95
2022/09/22 04:55:37;;;;;;;0.25;0.25;;;5.30;99.90;;;;;;6249107;22;20093;-94
2022/09/22 04:58:06;;;;;;;0.00;0.00;;;5.30;99.90;;;;;;6199416;22;20019;-94
2022/09/22 05:00:32;;;;;;;0.10;0.10;;;6.00;99.90;;;;;;6225862;22;20034;-92
2022/09/22 05:02:59;;;;;;;0.20;0.20;;;5.40;99.90;;;;;;6251251;22;20012;-95
2022/09/22 05:05:25;;;;;;;;;;;6.40;99.90;;;;;;6250964;22;20094;-94
2022/09/22 05:07:53;;;;;;;0.20;0.20;;;5.80;99.90;;;;;;6200589;22;19966;-94
2022/09/22 05:10:20;;;;;;;0.32;0.10;;;5.20;99.90;;;;;;6251480;22;20012;-94
2022/09/22 05:12:46;;;;;;;0.13;0.13;;;5.20;99.90;;;;;;6250174;22;20015;-94
2022/09/22 05:15:13;;;;;;;1.70;0.30;;;5.20;99.90;;;;;;6226726;22;20114;-94
2022/09/22 05:17:46;;;;;;;;;;;5.20;99.90;;;;;;6225946;22;20020;-95
2022/09/22 05:20:12;;;;;;;0.20;0.20;;;5.10;99.90;;;;;;6251923;22;19922;-95
2022/09/22 05:22:38;;;;;;;0.30;0.20;;;5.20;99.90;;;;;;6225370;22;20023;-94
2022/09/22 05:25:06;;;;;;;0.10;0.10;;;5.30;99.90;;;;;;6223768;22;20349;-95
2022/09/22 05:27:32;;;;;;;0.10;0.10;;;5.10;99.90;;;;;;6225532;22;20020;-95
2022/09/22 05:29:58;;;;;;;0.10;0.10;;;5.80;99.90;;;;;;6226804;22;20027;-95
2022/09/22 05:32:23;;;;;;;0.00;0.00;;;5.10;99.90;;;;;;6253786;22;20015;-94
2022/09/22 05:34:49;;;;;;;0.07;0.07;;;5.10;99.90;;;;;;6200624;22;20020;-94
2022/09/22 05:37:15;;;;;;;0.20;0.10;;;5.20;99.90;;;;;;6250754;22;20571;-95
2022/09/22 05:39:40;;;;;;;0.33;0.17;;;4.50;99.90;;;;;;6251777;22;20235;-95
2022/09/22 05:42:06;;;;;;;0.20;0.20;;;5.10;99.90;;;;;;6226032;22;20020;-94
2022/09/22 05:44:32;;;;;;;1.20;0.33;;;5.10;99.90;;;;;;6227038;22;20015;-93
2022/09/22 05:46:58;;;;;;;0.83;0.83;;;5.20;99.90;;;;;;6203529;22;20015;-95
2022/09/22 05:49:23;;;;;;;0.40;0.40;;;5.20;99.90;;;;;;6254045;22;20090;-95
2022/09/22 05:51:54;;;;;;;0.20;0.20;;;5.20;99.90;;;;;;6202151;22;20012;-94
2022/09/22 05:54:19;;;;;;;0.13;0.13;;;5.30;99.90;;;;;;6201940;22;20019;-94
2022/09/22 05:56:45;;;;;;;0.23;0.23;;;5.30;99.90;;;;;;6250177;22;20026;-94
2022/09/22 05:59:11;;;;;;;0.40;0.30;;;5.30;99.90;;;;;;6201721;22;20012;-94
2022/09/22 06:01:37;;;;;;;0.30;0.20;;;5.30;99.90;;;;;;6250842;22;20020;-94
2022/09/22 06:04:03;;;;;;;0.13;0.10;;;5.40;99.90;;;;;;6202377;22;20073;-94
2022/09/22 06:06:29;;;;;;;0.13;0.13;;;5.80;99.90;;;;;;6201745;22;20094;-95
2022/09/22 06:08:54;;;;;;;0.20;0.20;;;5.50;99.90;;;;;;6225617;22;20030;-94
2022/09/22 06:11:20;;;;;;;0.20;0.20;;;5.60;99.90;;;;;;6253178;22;20012;-93
2022/09/22 06:13:49;;;;;;;0.40;0.30;;;6.80;99.90;;;;;;6225467;22;20015;-94
2022/09/22 06:16:16;;;;;;;0.22;0.22;;;5.90;99.90;;;;;;6227776;22;20090;-94
2022/09/22 06:18:47;;;;;;;0.65;0.22;;;6.10;99.90;;;;;;6227009;22;20016;-91
2022/09/22 06:21:15;;;;;;;0.30;0.30;;;6.40;99.90;;;;;;6228004;22;20015;-94
2022/09/22 06:23:41;;;;;;;0.32;0.32;;;6.70;99.90;;;;;;6252309;22;20016;-93
2022/09/22 06:26:10;;;;;;;0.20;0.20;;;7.00;99.90;;;;;;6201595;22;20026;-95
2022/09/22 06:28:36;;;;;;;0.28;0.28;;;7.30;99.90;;;;;;6202047;22;20022;-94
2022/09/22 06:31:02;;;;;;;0.83;0.40;;;7.60;99.90;;;;;;6201052;22;20015;-94
2022/09/22 06:33:28;;;;;;;0.30;0.30;;;8.10;99.90;;;;;;6226677;22;20020;-94
2022/09/22 06:35:56;;;;;;;;;;;8.00;99.90;;;;;;6226271;22;20468;-94
2022/09/22 06:38:21;;;;;;;1.13;0.52;;;8.00;99.90;;;;;;6226006;22;19915;-94
2022/09/22 06:40:47;;;;;;;1.90;0.40;;;8.00;99.90;;;;;;6200209;22;20111;-93
2022/09/22 06:43:21;;;;;;;0.47;0.45;;;8.10;99.90;;;;;;6278462;22;20030;-93
2022/09/22 06:45:50;;;;;;;0.50;0.50;;;7.90;99.90;;;;;;6250172;22;20093;-93
2022/09/22 06:48:18;;;;;;;1.08;0.70;;;7.90;99.90;;;;;;6199574;22;20016;-94
2022/09/22 06:50:50;;;;;;;0.88;0.88;;;7.90;99.90;;;;;;6250124;22;20074;-94
2022/09/22 06:53:16;;;;;;;0.40;0.40;;;8.00;99.90;;;;;;6250118;22;20034;-94
2022/09/22 06:55:42;;;;;;;0.65;0.65;;;8.30;99.90;;;;;;6200182;22;20015;-94
2022/09/22 06:58:09;;;;;;;0.98;0.90;;;8.70;99.90;;;;;;6250918;22;20016;-87
2022/09/22 07:00:35;;;;;;;1.15;0.82;;;9.00;99.90;;;;;;6226198;22;20034;-93
2022/09/22 07:03:26;;;;;;;0.85;0.70;;;9.60;99.90;;;;;;6175585;22;20075;-95
2022/09/22 07:05:55;;;;;;;0.80;0.80;;;9.70;99.90;;;;;;6201214;22;20065;-91
2022/09/22 07:08:24;;;;;;;1.05;0.80;;;10.00;99.90;;;;;;6251335;22;20012;-92
2022/09/22 07:11:09;;;;;;;1.10;0.98;;;10.30;99.90;;;;;;6199759;22;20444;-93
2022/09/22 07:13:38;;;;;;;1.30;0.77;;;10.70;99.90;;;;;;6226156;22;20054;-94
2022/09/22 07:16:10;;;;;;;1.48;0.70;;;11.10;99.90;;;;;;6225592;22;20016;-93
2022/09/22 07:18:40;;;;;;;1.85;1.00;;;11.50;99.90;;;;;;6251994;22;20070;-93
2022/09/22 07:21:26;;;;;;;1.45;0.90;;;12.00;99.90;;;;;;6225845;22;20023;-94
2022/09/22 07:23:58;;;;;;;0.95;0.82;;;12.40;99.90;;;;;;6249356;22;20016;-93
2022/09/22 07:26:31;;;;;;;1.83;0.90;;;12.70;99.90;;;;;;6251709;22;20075;-94
2022/09/22 07:28:59;;;;;;;1.40;0.80;;;12.80;99.90;;;;;;6228258;22;20102;-94
2022/09/22 07:31:26;;;;;;;1.85;0.88;;;13.00;99.90;;;;;;6228439;22;20016;-92
2022/09/22 07:33:53;;;;;;;0.77;0.75;;;12.90;99.90;;;;;;6226717;22;20397;-95
2022/09/22 07:36:21;;;;;;;0.95;0.60;;;12.90;99.90;;;;;;6202871;22;20016;-95
2022/09/22 07:38:50;;;;;;;0.93;0.50;;;12.90;99.90;;;;;;6225401;22;20023;-94
2022/09/22 07:41:20;;;;;;;1.42;0.82;;;13.00;99.90;;;;;;6251458;22;20023;-94
2022/09/22 07:43:52;;;;;;;0.80;0.80;;;13.00;99.90;;;;;;6227529;22;20019;-94
2022/09/22 07:46:18;;;;;;;1.05;0.70;;;12.10;99.90;;;;;;6252630;22;20019;-94
2022/09/22 07:48:45;;;;;;;1.23;0.90;;;12.60;99.90;;;;;;6228069;22;20020;-94
2022/09/22 07:51:21;;;;;;;1.20;0.60;;;13.40;99.90;;;;;;6231700;22;20022;-92
2022/09/22 07:53:50;;;;;;;1.20;1.10;;;13.40;99.90;;;;;;6226100;22;20020;-95
2022/09/22 07:56:19;;;;;;;0.75;0.57;;;13.40;99.90;;;;;;6251366;22;20015;-95
2022/09/22 07:58:51;;;;;;;0.90;0.70;;;13.50;99.90;;;;;;6227031;22;20020;-95
2022/09/22 08:01:18;;;;;;;1.00;0.60;;;13.60;99.90;;;;;;6250624;22;20023;-94
2022/09/22 08:03:45;;;;;;;0.82;0.68;;;13.70;99.90;;;;;;6250418;22;20069;-93
2022/09/22 08:06:12;;;;;;;1.17;0.70;;;13.90;99.90;;;;;;6224910;22;20082;-95
2022/09/22 08:08:43;;;;;;;1.55;0.68;;;13.90;99.90;;;;;;6226424;22;20129;-96
2022/09/22 08:11:16;;;;;;;1.00;0.70;;;14.00;99.90;;;;;;6251912;22;20015;-94
2022/09/22 08:13:47;;;;;;;0.95;0.95;;;14.10;99.90;;;;;;6226855;22;20020;-94
2022/09/22 08:16:13;;;;;;;2.08;0.65;;;14.10;99.90;;;;;;6248679;22;20019;-92
2022/09/22 08:18:39;;;;;;;0.95;0.80;;;14.20;99.90;;;;;;6224086;22;20020;-91
2022/09/22 08:21:08;;;;;;;0.80;0.80;;;14.20;99.90;;;;;;6224889;22;20023;-92
2022/09/22 08:23:34;;;;;;;1.25;0.57;;;14.50;99.90;;;;;;6250934;22;20340;-92
2022/09/22 08:26:07;;;;;;;1.98;0.68;;;14.50;99.90;;;;;;6223446;22;20390;-92
2022/09/22 08:28:37;;;;;;;1.25;0.85;;;14.60;99.90;;;;;;6223519;22;20074;-92
2022/09/22 08:31:03;;;;;;;0.55;0.55;;;14.60;99.90;;;;;;6223614;22;20019;-92
2022/09/22 08:33:30;;;;;;;1.10;0.70;;;14.70;99.90;;;;;;6249266;22;20058;-93
2022/09/22 08:35:58;;;;;;;0.73;0.40;;;14.70;99.90;;;;;;6223933;22;20018;-92
2022/09/22 08:38:26;;;;;;;0.68;0.50;;;14.70;99.90;;;;;;6223959;22;20023;-92
2022/09/22 08:41:14;;;;;;;0.50;0.50;;;14.70;99.90;;;;;;6249081;22;20023;-92
2022/09/22 08:43:47;;;;;;;0.50;0.50;;;14.10;99.90;;;;;;6249292;22;20058;-92
2022/09/22 08:46:16;;;;;;;0.47;0.47;;;14.70;99.90;;;;;;6223428;22;20023;-92
2022/09/22 08:51:52;;;;;;;0.40;0.40;;;14.90;99.90;;;;;;6249429;22;20094;-92
2022/09/22 08:54:20;;;;;;;0.30;0.25;;;15.00;99.90;;;;;;6248563;22;20020;-91
2022/09/22 08:57:10;;;;;;;1.85;0.55;;;15.10;99.90;;;;;;6223759;22;20016;-92
2022/09/22 08:59:53;;;;;;;0.45;0.45;;;15.10;99.90;;;;;;6249270;22;20073;-92
2022/09/22 09:02:44;;;;;;;0.63;0.63;;;15.30;99.90;;;;;;6248543;22;20099;-92
2022/09/22 09:05:34;;;;;;;0.63;0.60;;;15.40;99.90;;;;;;6223080;22;20012;-91
2022/09/22 09:08:12;;;;;;;0.30;0.30;;;15.40;99.90;;;;;;6223843;22;20027;-91
2022/09/22 09:10:53;;;;;;;0.22;0.22;;;15.50;99.90;;;;;;6223937;22;20448;-92
2022/09/22 09:13:29;;;;;;;0.82;0.47;;;15.60;99.90;;;;;;6248357;22;20474;-92
2022/09/22 09:16:07;;;;;;;0.50;0.50;;;15.70;99.90;;;;;;6223929;22;20016;-92
2022/09/22 09:18:38;;;;;;;0.43;0.30;;;15.70;99.90;;;;;;6223776;22;20038;-91
2022/09/22 09:21:08;;;;;;;0.43;0.43;;;15.80;99.90;;;;;;6249138;22;20069;-91
2022/09/22 09:23:58;;;;;;;0.52;0.32;;;15.80;99.90;;;;;;6223821;22;20066;-92
2022/09/22 09:26:26;;;;;;;0.20;0.20;;;15.80;99.90;;;;;;6223149;22;20099;-91
2022/09/22 09:29:02;;;;;;;0.50;0.30;;;15.90;99.90;;;;;;6276005;22;20011;-92
2022/09/22 09:31:45;;;;;;;0.30;0.30;;;15.60;99.90;;;;;;6248436;22;20069;-91
2022/09/22 09:34:17;;;;;;;0.28;0.28;;;15.90;99.90;;;;;;6223158;22;20054;-92
2022/09/22 09:36:51;;;;;;;0.45;0.45;;;15.90;99.90;;;;;;6223664;22;20161;-91
2022/09/22 09:39:30;;;;;;;0.30;0.20;;;16.00;99.90;;;;;;6243106;23;20024;-92
2022/09/22 09:42:01;;;;;;;0.40;0.30;;;16.20;99.90;;;;;;6220751;22;20031;-92
2022/09/22 09:44:28;;;;;;;0.30;0.30;;;16.30;99.90;;;;;;6222823;22;20374;-92
2022/09/22 09:47:00;;;;;;;0.40;0.40;;;16.50;99.90;;;;;;6248100;22;20099;-91
2022/09/22 09:49:29;;;;;;;0.82;0.70;;;16.10;99.90;;;;;;6223406;22;20062;-92
2022/09/22 09:51:59;;;;;;;0.20;0.20;;;16.60;99.90;;;;;;6223423;22;20016;-91
2022/09/22 09:54:29;;;;;;;0.30;0.30;;;16.80;99.90;;;;;;6222947;22;20020;-92
2022/09/22 09:57:07;;;;;;;0.25;0.25;;;17.20;99.90;;;;;;6223461;22;20011;-92
2022/09/22 10:03:00;;;;;;;0.60;0.38;;;17.40;99.90;;;;;;6248920;22;20016;-92
2022/09/22 10:05:26;;;;;;;0.30;0.20;;;17.50;99.90;;;;;;6203729;22;20011;-91
2022/09/22 10:07:57;;;;;;;0.20;0.20;;;17.60;99.90;;;;;;6224208;22;20023;-92
2022/09/22 10:10:28;;;;;;;0.30;0.30;;;17.80;99.90;;;;;;6248249;22;20015;-92
2022/09/22 10:13:03;;;;;;;0.30;0.30;;;18.00;99.90;;;;;;6223295;22;20016;-91
2022/09/22 10:15:36;;;;;;;0.30;0.30;;;18.10;99.90;;;;;;6223372;22;20511;-91
2022/09/22 10:18:22;;;;;;;0.20;0.20;;;18.30;99.90;;;;;;6200342;22;20019;-91
2022/09/22 10:21:05;;;;;;;0.20;0.20;;;17.40;99.90;;;;;;6225159;22;20032;-92
2022/09/22 10:23:35;;;;;;;0.82;0.40;;;18.30;99.90;;;;;;6250096;22;20907;-92
2022/09/22 10:26:32;;;;;;;0.38;0.38;;;18.40;99.90;;;;;;6225005;22;20015;-92
2022/09/22 10:29:19;;;;;;;0.30;0.30;;;18.50;99.90;;;;;;6225289;22;20026;-92
2022/09/22 10:32:16;;;;;;;0.30;0.30;;;18.50;99.90;;;;;;6225972;22;20077;-92
2022/09/22 10:34:49;;;;;;;0.60;0.60;;;18.50;99.90;;;;;;6225378;22;20022;-91
2022/09/22 10:37:23;;;;;;;1.15;0.52;;;18.40;99.90;;;;;;6224572;22;20015;-91
2022/09/22 10:39:51;;;;;;;0.40;0.40;;;18.40;99.90;;;;;;6224729;22;20020;-92
2022/09/22 10:42:24;;;;;;;0.32;0.32;;;18.50;99.90;;;;;;6224580;22;20444;-91
2022/09/22 10:44:51;;;;;;;0.82;0.50;;;18.50;99.90;;;;;;6250469;22;20011;-91
2022/09/22 10:47:39;;;;;;;0.60;0.60;;;18.50;99.90;;;;;;6218970;23;20455;-91
2022/09/22 10:50:27;;;;;;;0.40;0.38;;;18.50;99.90;;;;;;6224890;22;20027;-91
2022/09/22 10:53:24;;;;;;;0.70;0.70;;;18.70;99.90;;;;;;6250569;22;20011;-91
2022/09/22 10:56:04;;;;;;;2.47;0.40;;;18.80;99.90;;;;;;6249914;22;20019;-91
2022/09/22 10:58:41;;;;;;;0.80;0.30;;;18.80;99.90;;;;;;6249704;22;20090;-92
2022/09/22 11:01:35;;;;;;;1.23;0.60;;;18.80;99.90;;;;;;6250293;22;20098;-92
2022/09/22 11:04:27;;;;;;;0.30;0.30;;;19.00;99.90;;;;;;6224259;22;20448;-92
2022/09/22 11:13:45;;;;;;;0.40;0.40;;;19.40;99.90;;;;;;6250005;22;20026;-91
2022/09/22 11:16:31;;;;;;;0.65;0.60;;;19.30;99.90;;;;;;6224312;22;20012;-91
2022/09/22 11:19:12;;;;;;;0.55;0.55;;;18.90;99.90;;;;;;6224435;22;20034;-92
2022/09/22 11:22:11;;;;;;;0.52;0.52;;;18.70;99.90;;;;;;6249563;22;20023;-92
2022/09/22 11:25:01;;;;;;;0.50;0.45;;;18.80;99.90;;;;;;6224048;22;20444;-92
2022/09/22 11:27:42;;;;;;;0.35;0.35;;;19.00;99.90;;;;;;6223822;22;20025;-92
2022/09/22 11:30:16;;;;;;;0.50;0.45;;;19.20;99.90;;;;;;6224589;22;20023;-92
2022/09/22 11:33:06;;;;;;;0.40;0.40;;;19.30;98.90;;;;;;6223639;22;20012;-92
2022/09/22 11:35:48;;;;;;;0.55;0.52;;;19.40;99.90;;;;;;6249473;22;20011;-92
2022/09/22 11:38:22;;;;;;;0.70;0.70;;;19.60;99.80;;;;;;6224640;22;20095;-92
2022/09/22 11:41:01;;;;;;;0.65;0.65;;;19.70;99.90;;;;;;6224503;22;20015;-92
2022/09/22 11:43:49;;;;;;;0.50;0.50;;;19.80;99.90;;;;;;6224067;22;20099;-92
2022/09/22 11:46:46;;;;;;;0.50;0.40;;;19.80;99.90;;;;;;6224183;22;20436;-91
2022/09/22 11:49:24;;;;;;;0.77;0.60;;;19.70;98.60;;;;;;6249513;22;20015;-92
2022/09/22 11:52:04;;;;;;;0.30;0.30;;;19.50;99.90;;;;;;6249646;22;20016;-92
2022/09/22 11:54:56;;;;;;;0.70;0.60;;;19.40;99.90;;;;;;6249894;22;20022;-91
2022/09/22 11:57:43;;;;;;;0.52;0.52;;;18.50;98.10;;;;;;6224357;22;20054;-90
2022/09/22 12:00:16;;;;;;;1.30;0.52;;;19.40;99.90;;;;;;6251709;22;20070;-91
2022/09/22 12:02:53;;;;;;;0.30;0.30;;;19.20;99.90;;;;;;6224318;22;20376;-92
2022/09/22 12:05:39;;;;;;;0.50;0.50;;;19.30;99.90;;;;;;6224430;22;20011;-91
2022/09/22 12:08:17;;;;;;;0.50;0.50;;;19.40;99.90;;;;;;6249573;22;20474;-91
2022/09/22 12:10:44;;;;;;;0.47;0.47;;;19.60;99.90;;;;;;6223931;22;20019;-92
2022/09/22 12:13:21;;;;;;;0.40;0.40;;;19.70;99.90;;;;;;6225390;22;20027;-91
2022/09/22 12:16:40;;;;;;;1.30;0.50;;;19.00;99.90;;;;;;6225419;22;20023;-93
2022/09/22 12:19:42;;;;;;;0.98;0.40;;;19.90;99.90;;;;;;6169948;22;20016;-92
2022/09/22 12:22:17;;;;;;;0.38;0.20;;;19.70;98.90;;;;;;6224990;22;20012;-92
2022/09/22 12:24:46;;;;;;;1.00;0.65;;;19.80;99.90;;;;;;6224637;22;20442;-92
2022/09/22 12:27:18;;;;;;;0.50;0.40;;;19.70;99.30;;;;;;6226086;22;20020;-92
2022/09/22 12:29:46;;;;;;;0.52;0.52;;;19.70;99.90;;;;;;6224430;22;20019;-92
2022/09/22 12:32:23;;;;;;;0.35;0.35;;;19.50;99.90;;;;;;6249409;22;20020;-92
2022/09/22 12:34:51;;;;;;;0.22;0.22;;;19.50;99.90;;;;;;6248716;22;20344;-92
2022/09/22 12:37:42;;;;;;;1.27;0.57;;;19.70;99.90;;;;;;6223951;22;20047;-94
2022/09/22 12:40:14;;;;;;;0.57;0.30;;;19.50;97.40;;;;;;6231693;22;20102;-93
2022/09/22 12:42:42;;;;;;;3.20;0.85;;;19.40;99.90;;;;;;6226350;22;20062;-90
2022/09/22 12:45:27;;;;;;;0.50;0.50;;;19.10;99.90;;;;;;6223969;22;20027;-94
2022/09/22 12:47:56;;;;;;;0.50;0.38;;;18.90;99.90;;;;;;6223178;22;20336;-96
2022/09/22 12:50:25;;;;;;;0.35;0.35;;;18.30;99.90;;;;;;6224646;22;20011;-94
2022/09/22 12:52:50;;;;;;;0.50;0.50;;;19.30;99.90;;;;;;6222834;22;20015;-93
2022/09/22 12:55:28;;;;;;;0.75;0.57;;;19.60;99.90;;;;;;6224082;22;20019;-94
2022/09/22 13:05:49;;;;;;;0.50;0.50;;;18.60;97.30;;;;;;6042523;23;20017;-89
2022/09/22 13:09:24;;;;;;;0.77;0.40;;;19.10;99.90;;;;;;6061991;23;20010;-91
2022/09/22 13:12:22;;;;;;;;;;;;;;;;;;;;;
2022/09/22 13:15:49;;;;;;;;;;;;;;;;;;;;;
2022/09/22 13:18:53;;;;;;;0.80;0.70;;;19.90;95.90;;;;;;6249675;22;20448;-91
2022/09/22 13:22:21;;;;;;;;;;;;;;;;;;;;;
2022/09/22 13:25:00;;;;;;;1.40;0.30;;;20.30;98.80;;;;;;6249137;22;20111;-91
2022/09/22 13:28:04;;;;;;;;;;;;;;;;;;;;;
2022/09/22 13:30:58;;;;;;;0.52;0.50;;;19.40;99.90;;;;;;6179201;23;20391;-91
2022/09/22 13:33:38;;;;;;;0.45;0.43;;;19.50;99.90;;;;;;6223421;22;20347;-91
2022/09/22 13:36:19;;;;;;;0.40;0.40;;;19.80;99.00;;;;;;6219569;22;20012;-91
2022/09/22 13:39:08;;;;;;;;;;;;;;;;;;;;;
2022/09/22 13:42:10;;;;;;;0.60;0.60;;;19.90;99.90;;;;;;6274976;22;20094;-91
2022/09/22 13:45:25;;;;;;;0.73;0.73;;;19.70;97.40;;;;;;6219892;22;20067;-92
2022/09/22 13:48:38;;;;;;;;;;;;;;;;;;;;;
2022/09/22 13:51:23;;;;;;;0.50;0.30;;;19.60;98.20;;;;;;6249815;22;20016;-91
2022/09/22 13:54:16;;;;;;;;;;;;;;;;;;;;;
2022/09/22 13:57:29;;;;;;;;;;;;;;;;;;;;;
2022/09/22 14:00:41;;;;;;;0.55;0.43;;;19.20;98.10;;;;;;6131787;22;20012;-91